Paintersville, California
Current Conditions -  °F | °C
As of 9:53 PM on Friday 24 Oct 2014 (Local Time) from KSAC Reporting Station
Clear Clear  
Wind Chill: 63°   Ceiling: Unl
Heat Index: 63°   Visibility: 10mi
Dew Point: 56°   Wind: 9mph
Humidity: 78%   Direction: 220°SW
Pressure: 29.89"   Gusts: NA
Location:  38.3168°N, 121.532°W
Report Text: KSAC 250453Z AUTO 22008KT 10SM CLR 17/13 A2989 RMK AO2 SLP121 T01720133
Loading
Personal Weather Stations






























Interactive Weather Map
Tropical Storm Tracking
New forecast layout! Learn more

10-Day Weather Forecast

Advertisements
Track Severe Weather on mobile